TimeCST,TemperatureF,Dew PointF,Humidity,Sea Level PressureIn,VisibilityMPH,Wind Direction,Wind SpeedMPH,Gust SpeedMPH,PrecipitationIn,Events,Conditions,WindDirDegrees,DateUTC
12:15 AM,23.0,14.0,68,30.23,10.0,ENE,9.2,-,N/A,,Clear,70,2013-02-21 06:15:00
12:35 AM,23.0,14.0,68,30.23,10.0,ENE,10.4,-,N/A,,Clear,70,2013-02-21 06:35:00
12:55 AM,23.0,14.0,68,30.22,10.0,ENE,8.1,-,N/A,,Clear,70,2013-02-21 06:55:00
1:15 AM,23.0,14.0,68,30.22,10.0,ENE,8.1,-,N/A,,Scattered Clouds,70,2013-02-21 07:15:00
1:35 AM,23.0,14.0,68,30.22,10.0,East,10.4,-,N/A,,Mostly Cloudy,80,2013-02-21 07:35:00
1:55 AM,23.0,14.0,68,30.21,10.0,East,12.7,16.1,N/A,,Overcast,80,2013-02-21 07:55:00
2:15 AM,23.0,14.0,68,30.20,10.0,East,8.1,-,N/A,,Overcast,80,2013-02-21 08:15:00
2:35 AM,23.0,14.0,68,30.17,10.0,ENE,13.8,17.3,N/A,,Overcast,70,2013-02-21 08:35:00
2:55 AM,23.0,14.0,68,30.13,10.0,ENE,16.1,20.7,N/A,,Mostly Cloudy,70,2013-02-21 08:55:00
3:15 AM,23.0,14.0,68,30.15,10.0,East,8.1,-,N/A,,Mostly Cloudy,90,2013-02-21 09:15:00
3:35 AM,23.0,14.0,68,30.16,10.0,East,9.2,16.1,N/A,,Overcast,90,2013-02-21 09:35:00
3:55 AM,23.0,14.0,68,30.14,10.0,ENE,13.8,17.3,N/A,,Overcast,70,2013-02-21 09:55:00
4:15 AM,23.0,14.0,68,30.13,10.0,East,13.8,21.9,N/A,,Overcast,90,2013-02-21 10:15:00
4:35 AM,23.0,14.0,68,30.10,10.0,East,12.7,17.3,N/A,,Overcast,80,2013-02-21 10:35:00
4:55 AM,23.0,14.0,68,30.12,10.0,East,10.4,17.3,N/A,,Unknown,90,2013-02-21 10:55:00
5:15 AM,23.0,15.8,74,30.12,10.0,East,10.4,-,N/A,,Overcast,90,2013-02-21 11:15:00
5:35 AM,23.0,15.8,74,30.07,10.0,ENE,15.0,19.6,N/A,,Overcast,60,2013-02-21 11:35:00
5:55 AM,23.0,15.8,74,30.07,10.0,East,13.8,17.3,N/A,,Overcast,80,2013-02-21 11:55:00
6:15 AM,23.0,15.8,74,30.10,10.0,East,11.5,18.4,N/A,,Unknown,90,2013-02-21 12:15:00
6:35 AM,23.0,15.8,74,30.07,10.0,East,12.7,23.0,N/A,,Unknown,80,2013-02-21 12:35:00
6:55 AM,23.0,15.8,74,30.05,10.0,East,11.5,20.7,N/A,,Overcast,80,2013-02-21 12:55:00
7:15 AM,24.8,15.8,69,30.06,10.0,East,12.7,17.3,N/A,,Unknown,90,2013-02-21 13:15:00
7:35 AM,24.8,15.8,69,30.06,10.0,East,12.7,18.4,N/A,,Overcast,80,2013-02-21 13:35:00
7:55 AM,23.0,17.6,80,30.08,1.0,East,12.7,16.1,N/A,Snow,Light Snow,90,2013-02-21 13:55:00
8:15 AM,23.0,21.2,93,30.08,0.2,East,10.4,-,N/A,Snow,Snow,80,2013-02-21 14:15:00
8:35 AM,23.0,21.2,93,30.06,0.2,ENE,11.5,-,N/A,Snow,Heavy Snow,60,2013-02-21 14:35:00
8:55 AM,23.0,21.2,93,30.08,0.2,East,10.4,-,N/A,Snow,Heavy Snow,80,2013-02-21 14:55:00
9:15 AM,23.0,21.2,93,30.08,0.2,East,13.8,18.4,N/A,Snow,Heavy Snow,80,2013-02-21 15:15:00
9:35 AM,23.0,21.2,93,30.05,0.2,ENE,13.8,18.4,N/A,Snow,Heavy Snow,70,2013-02-21 15:35:00
9:55 AM,23.0,21.2,93,30.03,0.2,ENE,16.1,25.3,N/A,Snow,Heavy Snow,70,2013-02-21 15:55:00
10:15 AM,23.0,21.2,93,29.99,0.2,ENE,19.6,25.3,N/A,Snow,Heavy Snow,70,2013-02-21 16:15:00
10:35 AM,23.0,21.2,93,29.98,0.2,East,16.1,27.6,N/A,Snow,Snow,80,2013-02-21 16:35:00
10:55 AM,23.0,21.2,93,29.95,0.8,ENE,19.6,27.6,N/A,Snow,Light Snow,70,2013-02-21 16:55:00
11:15 AM,23.0,21.2,93,29.93,1.5,East,23.0,31.1,N/A,Snow,Light Snow,80,2013-02-21 17:15:00
11:35 AM,23.0,21.2,93,29.92,0.2,East,21.9,29.9,N/A,Snow,Snow,90,2013-02-21 17:35:00
12:15 PM,24.8,21.2,86,29.92,0.2,East,16.1,27.6,N/A,Snow,Snow,90,2013-02-21 18:15:00
12:35 PM,24.8,21.2,86,29.90,0.8,East,18.4,32.2,N/A,Snow,Light Snow,90,2013-02-21 18:35:00
12:55 PM,26.6,21.2,80,29.88,1.2,East,19.6,27.6,N/A,Snow,Light Snow,90,2013-02-21 18:55:00
1:15 PM,26.6,21.2,80,29.87,1.5,East,19.6,31.1,N/A,Snow,Light Snow,100,2013-02-21 19:15:00
1:35 PM,26.6,21.2,80,29.85,1.8,East,25.3,34.5,N/A,,Overcast,100,2013-02-21 19:35:00
1:55 PM,24.8,21.2,86,29.85,1.8,East,21.9,27.6,N/A,,Overcast,100,2013-02-21 19:55:00
2:15 PM,24.8,21.2,86,29.84,2.0,East,13.8,27.6,N/A,,Overcast,100,2013-02-21 20:15:00
2:35 PM,24.8,23.0,93,29.84,2.5,East,16.1,23.0,N/A,Snow,Light Snow,90,2013-02-21 20:35:00
2:55 PM,26.6,23.0,86,29.82,3.0,East,13.8,26.5,N/A,,Mist,100,2013-02-21 20:55:00
3:15 PM,26.6,23.0,86,29.82,2.5,East,16.1,28.8,N/A,,Overcast,100,2013-02-21 21:15:00
3:35 PM,26.6,23.0,86,29.82,2.0,East,12.7,24.2,N/A,,Overcast,90,2013-02-21 21:35:00
4:15 PM,26.6,23.0,86,29.80,3.0,East,16.1,-,N/A,,Mist,100,2013-02-21 22:15:00
5:15 PM,26.6,23.0,86,29.79,1.8,East,10.4,16.1,N/A,Snow,Light Snow,90,2013-02-21 23:15:00
5:35 PM,26.6,23.0,86,29.80,0.5,East,9.2,-,N/A,Snow,Light Snow,90,2013-02-21 23:35:00
5:55 PM,26.6,23.0,86,29.81,0.8,East,5.8,-,N/A,Snow,Light Snow,90,2013-02-21 23:55:00
6:15 PM,26.6,23.0,86,29.80,1.0,East,8.1,-,N/A,Snow,Light Snow,90,2013-02-22 00:15:00
6:35 PM,26.6,23.0,86,29.80,0.8,East,8.1,-,N/A,Snow,Light Snow,90,2013-02-22 00:35:00
6:55 PM,26.6,23.0,86,29.80,1.2,East,4.6,-,N/A,Snow,Light Snow,90,2013-02-22 00:55:00
7:15 PM,26.6,23.0,86,29.80,3.0,ENE,5.8,-,N/A,Snow,Light Snow,70,2013-02-22 01:15:00
7:35 PM,26.6,23.0,86,29.79,5.0,ENE,5.8,-,N/A,,Overcast,70,2013-02-22 01:35:00
7:55 PM,26.6,24.8,93,29.79,1.8,NE,5.8,-,N/A,Snow,Light Snow,50,2013-02-22 01:55:00
8:15 PM,26.6,24.8,93,29.79,1.8,ENE,5.8,-,N/A,Snow,Light Snow,70,2013-02-22 02:15:00
8:35 PM,26.6,24.8,93,29.80,1.2,East,4.6,-,N/A,Snow,Light Snow,80,2013-02-22 02:35:00
8:55 PM,26.6,24.8,93,29.79,5.0,ENE,4.6,-,N/A,Snow,Light Snow,70,2013-02-22 02:55:00
9:15 PM,26.6,23.0,86,29.79,10.0,East,4.6,-,N/A,,Overcast,80,2013-02-22 03:15:00
9:35 PM,26.6,23.0,86,29.78,10.0,ENE,3.5,-,N/A,,Overcast,60,2013-02-22 03:35:00
9:55 PM,26.6,24.8,93,29.78,10.0,NE,3.5,-,N/A,,Overcast,40,2013-02-22 03:55:00
10:15 PM,26.6,24.8,93,29.78,10.0,ENE,3.5,-,N/A,,Overcast,60,2013-02-22 04:15:00
10:35 PM,26.6,24.8,93,29.78,10.0,Calm,Calm,-,N/A,,Overcast,0,2013-02-22 04:35:00
10:55 PM,26.6,24.8,93,29.78,10.0,East,3.5,-,N/A,,Overcast,90,2013-02-22 04:55:00
11:15 PM,26.6,24.8,93,29.77,3.0,Calm,Calm,-,N/A,Snow,Light Snow,0,2013-02-22 05:15:00
11:35 PM,26.6,24.8,93,29.78,1.5,Calm,Calm,-,N/A,Snow,Light Snow,0,2013-02-22 05:35:00
11:55 PM,26.6,24.8,93,29.78,7.0,Calm,Calm,-,N/A,,Overcast,0,2013-02-22 05:55:00